createdAt,value
2023-03-10T00:00:59.241Z,0.27
2023-03-10T00:05:01.643Z,0.02
2023-03-10T00:09:03.888Z,0.14
2023-03-10T00:13:05.373Z,0.34
2023-03-10T00:17:07.348Z,0.18
2023-03-10T00:21:15.260Z,0.05
2023-03-10T00:25:16.863Z,0.13
2023-03-10T00:29:18.386Z,0.14
2023-03-10T00:33:19.795Z,0.04
2023-03-10T00:37:21.493Z,0.16
2023-03-10T00:41:28.364Z,0.22
2023-03-10T00:45:29.763Z,0.06
2023-03-10T00:49:31.208Z,0.16
2023-03-10T00:53:35.232Z,0.23
2023-03-10T00:57:38.291Z,0.30
2023-03-10T01:01:41.646Z,0.09
2023-03-10T01:05:43.154Z,0.17
2023-03-10T01:09:44.641Z,0.27
2023-03-10T01:13:47.011Z,0.32
2023-03-10T01:17:48.476Z,0.39
2023-03-10T01:21:49.936Z,0.16
2023-03-10T01:25:52.319Z,0.30
2023-03-10T01:29:53.796Z,0.29
2023-03-10T01:33:55.246Z,0.32
2023-03-10T01:37:57.532Z,0.20
2023-03-10T01:42:00.155Z,0.25
2023-03-10T01:46:01.556Z,0.28
2023-03-10T01:50:04.703Z,0.28
2023-03-10T01:54:11.300Z,0.34
2023-03-10T01:58:13.637Z,0.38
2023-03-10T02:02:15.201Z,0.26
2023-03-10T02:06:19.839Z,0.05
2023-03-10T02:10:21.350Z,0.30
2023-03-10T02:14:22.885Z,0.33
2023-03-10T02:18:25.807Z,0.39
2023-03-10T02:22:27.612Z,0.35
2023-03-10T02:26:53.169Z,0.34
2023-03-10T02:30:54.986Z,0.35
2023-03-10T02:34:56.632Z,0.39
2023-03-10T02:38:58.061Z,0.40
2023-03-10T02:43:02.869Z,0.39
2023-03-10T02:47:04.618Z,0.44
2023-03-10T02:51:11.338Z,0.36
2023-03-10T02:55:19.140Z,0.42
2023-03-10T02:59:20.632Z,0.27
2023-03-10T03:03:23.304Z,0.41
2023-03-10T03:07:24.764Z,0.44
2023-03-10T03:11:26.437Z,0.40
2023-03-10T03:15:28.218Z,0.48
2023-03-10T03:19:30.052Z,0.39
2023-03-10T03:23:31.603Z,0.39
2023-03-10T03:27:33.111Z,0.35
2023-03-10T03:31:34.619Z,0.49
2023-03-10T03:35:37.196Z,0.49
2023-03-10T03:39:38.775Z,0.54
2023-03-10T03:43:40.274Z,0.50
2023-03-10T03:47:41.796Z,0.49
2023-03-10T03:51:43.224Z,0.58
2023-03-10T03:55:44.734Z,0.57
2023-03-10T03:59:46.236Z,0.62
2023-03-10T04:03:48.277Z,0.51
2023-03-10T04:07:49.940Z,0.56
2023-03-10T04:11:51.404Z,0.49
2023-03-10T04:15:58.279Z,0.69
2023-03-10T04:20:07.128Z,0.75
2023-03-10T04:24:09.149Z,0.61
2023-03-10T04:28:11.705Z,0.69
2023-03-10T04:32:13.241Z,0.65
2023-03-10T04:36:15.884Z,0.71
2023-03-10T04:40:17.629Z,0.65
2023-03-10T04:44:30.571Z,0.79
2023-03-10T04:48:33.588Z,0.80
2023-03-10T04:52:35.066Z,0.78
2023-03-10T04:56:39.266Z,0.93
2023-03-10T05:00:53.056Z,0.96
2023-03-10T05:05:02.066Z,1.09
2023-03-10T05:09:05.004Z,1.01
2023-03-10T05:13:07.956Z,0.95
2023-03-10T05:17:09.621Z,1.00
2023-03-10T05:21:11.506Z,0.87
2023-03-10T05:25:12.968Z,1.00
2023-03-10T05:29:14.437Z,1.10
2023-03-10T05:33:15.874Z,1.16
2023-03-10T05:37:17.744Z,1.24
2023-03-10T05:41:19.529Z,1.25
2023-03-10T05:45:21.041Z,1.30
2023-03-10T05:49:22.447Z,1.22
2023-03-10T05:53:25.403Z,1.33
2023-03-10T05:57:27.113Z,1.45
2023-03-10T06:01:28.892Z,1.48
2023-03-10T06:05:30.336Z,1.41
2023-03-10T06:09:32.850Z,1.44
2023-03-10T06:13:34.819Z,1.44
2023-03-10T06:17:36.617Z,1.52
2023-03-10T06:21:38.104Z,1.58
2023-03-10T06:25:39.640Z,1.57
2023-03-10T06:29:41.103Z,1.43
2023-03-10T06:33:43.589Z,1.45
2023-03-10T06:37:45.058Z,1.57
2023-03-10T06:41:47.110Z,1.53
2023-03-10T06:45:49.190Z,1.69
2023-03-10T06:49:50.684Z,1.68
2023-03-10T06:53:52.616Z,1.74
2023-03-10T06:57:54.104Z,1.79
2023-03-10T07:01:55.491Z,1.87
2023-03-10T07:05:59.662Z,1.91
2023-03-10T07:10:07.003Z,1.87
2023-03-10T07:14:09.589Z,1.88
2023-03-10T07:18:11.740Z,1.90
2023-03-10T07:22:13.267Z,1.93
2023-03-10T07:26:15.951Z,2.04
2023-03-10T07:30:17.734Z,2.19
2023-03-10T07:34:19.187Z,2.21
2023-03-10T07:38:20.736Z,2.32
2023-03-10T07:42:22.367Z,2.41
2023-03-10T07:46:23.985Z,2.56
2023-03-10T07:50:25.537Z,2.83
2023-03-10T07:54:26.999Z,2.83
2023-03-10T07:58:28.482Z,2.96
2023-03-10T08:02:29.944Z,3.22
2023-03-10T08:06:32.732Z,3.52
2023-03-10T08:10:34.798Z,3.78
2023-03-10T08:14:36.587Z,3.89
2023-03-10T08:18:38.046Z,4.21
2023-03-10T08:22:39.472Z,4.02
2023-03-10T08:26:41.159Z,4.36
2023-03-10T08:30:57.294Z,4.46
2023-03-10T08:35:05.994Z,4.89
2023-03-10T08:39:08.235Z,4.94
2023-03-10T08:43:09.788Z,5.18
2023-03-10T08:47:11.383Z,5.27
2023-03-10T08:51:15.746Z,5.57
2023-03-10T08:55:17.856Z,5.55
2023-03-10T08:59:20.912Z,6.07
2023-03-10T09:03:22.943Z,6.54
2023-03-10T09:07:24.600Z,7.09
2023-03-10T09:11:32.249Z,6.77
2023-03-10T09:15:34.717Z,7.08
2023-03-10T09:19:36.146Z,7.25
2023-03-10T09:23:38.253Z,7.10
2023-03-10T09:27:39.885Z,7.51
2023-03-10T09:31:41.509Z,7.37
2023-03-10T09:35:52.433Z,7.75
2023-03-10T09:39:54.514Z,8.33
2023-03-10T09:44:40.287Z,8.61
2023-03-10T09:49:00.726Z,8.69
2023-03-10T09:53:13.020Z,8.78
2023-03-10T09:57:20.857Z,8.78
2023-03-10T10:01:29.555Z,8.79
2023-03-10T10:05:33.690Z,8.81
2023-03-10T10:09:43.459Z,9.01
2023-03-10T10:13:46.114Z,9.14
2023-03-10T10:18:17.597Z,9.17
2023-03-10T10:22:32.088Z,9.13
2023-03-10T10:26:33.592Z,9.08
2023-03-10T10:30:38.763Z,9.05
2023-03-10T10:34:43.610Z,8.88
2023-03-10T10:38:50.684Z,8.72
2023-03-10T10:42:54.309Z,8.65
2023-03-10T10:46:57.626Z,8.79
2023-03-10T10:50:59.183Z,8.63
2023-03-10T10:55:02.286Z,8.41
2023-03-10T10:59:28.207Z,8.17
2023-03-10T11:03:34.322Z,8.32
2023-03-10T11:07:35.864Z,8.07
2023-03-10T11:12:19.909Z,8.09
2023-03-10T11:16:24.932Z,7.64
2023-03-10T11:20:53.578Z,7.49
2023-03-10T11:25:32.254Z,7.71
2023-03-10T11:30:03.012Z,7.23
2023-03-10T11:34:07.431Z,7.62
2023-03-10T11:38:30.036Z,7.57
2023-03-10T11:42:52.935Z,7.27
2023-03-10T11:47:18.014Z,7.07
2023-03-10T11:51:29.887Z,7.15
2023-03-10T11:55:32.163Z,7.15
2023-03-10T11:59:38.632Z,6.82
2023-03-10T12:04:01.791Z,6.57
2023-03-10T12:08:05.851Z,6.38
2023-03-10T12:12:13.723Z,6.60
2023-03-10T12:16:22.217Z,6.66
2023-03-10T12:20:31.393Z,6.93
2023-03-10T12:24:47.308Z,6.89
2023-03-10T12:28:48.732Z,8.05
2023-03-10T12:32:50.278Z,9.05
2023-03-10T12:37:22.077Z,8.40
2023-03-10T12:41:26.359Z,7.56
2023-03-10T12:45:31.714Z,7.59
2023-03-10T12:49:46.145Z,7.63
2023-03-10T12:53:58.589Z,7.66
2023-03-10T12:58:21.390Z,8.23
2023-03-10T13:02:33.270Z,8.57
2023-03-10T13:06:40.533Z,8.63
2023-03-10T13:10:44.377Z,9.50
2023-03-10T13:14:45.824Z,10.32
2023-03-10T13:18:52.731Z,9.82
2023-03-10T13:22:58.906Z,9.52
2023-03-10T13:27:17.001Z,9.19
2023-03-10T13:31:23.781Z,8.90
2023-03-10T13:35:35.821Z,9.38
2023-03-10T13:39:38.080Z,9.72
2023-03-10T13:43:41.579Z,9.64
2023-03-10T13:47:43.393Z,8.96
2023-03-10T13:51:56.698Z,9.23
2023-03-10T13:55:58.192Z,8.56
2023-03-10T14:00:00.585Z,8.42
2023-03-10T14:04:06.794Z,8.40
2023-03-10T14:08:17.831Z,8.28
2023-03-10T14:12:45.017Z,8.10
2023-03-10T14:16:53.806Z,7.96
2023-03-10T14:20:56.542Z,7.90
2023-03-10T14:25:00.598Z,8.04
2023-03-10T14:29:09.135Z,8.33
2023-03-10T14:33:16.109Z,8.35
2023-03-10T14:37:17.753Z,8.49
2023-03-10T14:41:24.140Z,8.94
2023-03-10T14:45:27.716Z,8.72
2023-03-10T14:49:29.267Z,8.64
2023-03-10T14:53:31.809Z,8.29
2023-03-10T14:57:33.448Z,7.90
2023-03-10T15:01:36.639Z,7.73
2023-03-10T15:05:48.287Z,7.57
2023-03-10T15:10:05.344Z,7.48
2023-03-10T15:14:19.332Z,7.18
2023-03-10T15:18:22.463Z,7.18
2023-03-10T15:22:23.940Z,6.77
2023-03-10T15:26:25.448Z,6.90
2023-03-10T15:30:30.338Z,6.80
2023-03-10T15:34:31.790Z,6.66
2023-03-10T15:38:33.248Z,6.56
2023-03-10T15:42:34.727Z,6.00
2023-03-10T15:46:36.260Z,6.20
2023-03-10T15:50:41.310Z,6.25
2023-03-10T15:54:42.725Z,6.02
2023-03-10T15:58:44.157Z,5.97
2023-03-10T16:02:46.445Z,5.71
2023-03-10T16:06:47.886Z,5.68
2023-03-10T16:10:54.246Z,5.48
2023-03-10T16:14:55.673Z,5.24
2023-03-10T16:18:57.174Z,5.31
2023-03-10T16:22:58.633Z,5.05
2023-03-10T16:27:00.118Z,5.17
2023-03-10T16:31:02.512Z,4.85
2023-03-10T16:35:05.257Z,4.78
2023-03-10T16:39:11.114Z,4.72
2023-03-10T16:43:12.591Z,4.74
2023-03-10T16:47:16.825Z,4.70
2023-03-10T16:51:21.076Z,4.61
2023-03-10T16:55:22.716Z,4.62
2023-03-10T16:59:25.107Z,4.72
2023-03-10T17:03:26.761Z,4.73
2023-03-10T17:07:28.267Z,4.53
2023-03-10T17:11:33.017Z,4.73
2023-03-10T17:15:35.373Z,4.64
2023-03-10T17:19:36.929Z,4.39
2023-03-10T17:23:38.499Z,4.58
2023-03-10T17:27:42.425Z,4.39
2023-03-10T17:31:50.653Z,4.35
2023-03-10T17:35:52.422Z,4.25
2023-03-10T17:39:54.485Z,4.09
2023-03-10T17:43:56.288Z,4.03
2023-03-10T17:47:58.104Z,3.90
2023-03-10T17:52:00.236Z,3.84
2023-03-10T17:56:06.372Z,3.86
2023-03-10T18:00:09.310Z,3.53
2023-03-10T18:04:11.250Z,3.58
2023-03-10T18:08:13.492Z,3.70
2023-03-10T18:12:16.113Z,3.63
2023-03-10T18:16:20.610Z,3.61
2023-03-10T18:20:23.737Z,3.65
2023-03-10T18:24:25.511Z,3.50
2023-03-10T18:28:27.032Z,3.37
2023-03-10T18:32:29.418Z,3.44
2023-03-10T18:36:31.075Z,3.20
2023-03-10T18:40:32.689Z,3.16
2023-03-10T18:44:34.207Z,3.23
2023-03-10T18:48:35.678Z,3.13
2023-03-10T18:52:37.187Z,3.00
2023-03-10T18:56:38.689Z,2.98
2023-03-10T19:00:41.252Z,2.87
2023-03-10T19:04:47.661Z,2.88
2023-03-10T19:08:49.489Z,3.08
2023-03-10T19:12:51.876Z,2.78
2023-03-10T19:16:53.416Z,3.03
2023-03-10T19:21:00.997Z,2.89
2023-03-10T19:25:03.546Z,2.84
2023-03-10T19:29:05.262Z,2.99
2023-03-10T19:33:06.759Z,2.93
2023-03-10T19:37:08.416Z,2.65
2023-03-10T19:41:16.617Z,2.69
2023-03-10T19:45:19.301Z,2.72
2023-03-10T19:49:23.561Z,2.86
2023-03-10T19:53:28.569Z,2.87
2023-03-10T19:57:30.004Z,2.57
2023-03-10T20:01:31.642Z,2.48
2023-03-10T20:05:33.207Z,2.57
2023-03-10T20:09:35.696Z,2.19
2023-03-10T20:13:37.224Z,2.29
2023-03-10T20:17:38.710Z,2.55
2023-03-10T20:21:41.577Z,2.53
2023-03-10T20:25:43.856Z,2.50
2023-03-10T20:29:45.576Z,2.42
2023-03-10T20:33:47.932Z,2.49
2023-03-10T20:37:49.709Z,2.40
2023-03-10T20:41:51.364Z,2.42
2023-03-10T20:45:53.043Z,2.57
2023-03-10T20:49:55.462Z,2.41
2023-03-10T20:53:57.294Z,2.44
2023-03-10T20:58:00.678Z,2.38
2023-03-10T21:02:02.195Z,2.41
2023-03-10T21:06:03.853Z,2.36
2023-03-10T21:10:07.553Z,2.43
2023-03-10T21:14:09.101Z,2.41
2023-03-10T21:18:10.634Z,2.43
2023-03-10T21:22:12.199Z,2.47
2023-03-10T21:26:20.866Z,2.53
2023-03-10T21:30:23.486Z,2.56
2023-03-10T21:34:25.135Z,2.48
2023-03-10T21:38:26.752Z,2.32
2023-03-10T21:42:28.283Z,2.30
2023-03-10T21:46:29.868Z,2.30
2023-03-10T21:50:31.895Z,2.41
2023-03-10T21:54:33.881Z,1.92
2023-03-10T21:58:36.117Z,2.06
2023-03-10T22:02:37.591Z,2.16
2023-03-10T22:06:39.595Z,2.00
2023-03-10T22:10:41.122Z,2.08
2023-03-10T22:14:42.854Z,2.09
2023-03-10T22:18:45.229Z,2.12
2023-03-10T22:22:47.390Z,2.13
2023-03-10T22:26:48.914Z,1.98
2023-03-10T22:30:50.482Z,2.03
2023-03-10T22:34:52.033Z,2.05
2023-03-10T22:38:53.543Z,1.88
2023-03-10T22:42:55.534Z,2.05
2023-03-10T22:46:57.027Z,1.97
2023-03-10T22:50:58.510Z,1.83
2023-03-10T22:55:00.242Z,1.81
2023-03-10T22:59:03.962Z,1.84
2023-03-10T23:03:07.212Z,1.84
2023-03-10T23:07:08.902Z,1.73
2023-03-10T23:11:11.870Z,1.71
2023-03-10T23:15:25.363Z,1.90
2023-03-10T23:19:27.312Z,1.68
2023-03-10T23:23:28.933Z,1.49
2023-03-10T23:27:30.451Z,1.58
2023-03-10T23:31:32.016Z,1.41
2023-03-10T23:35:35.385Z,1.63
2023-03-10T23:39:36.882Z,1.56
2023-03-10T23:43:38.452Z,1.52
2023-03-10T23:47:40.900Z,1.31
2023-03-10T23:51:42.402Z,1.26
2023-03-10T23:55:46.006Z,1.16
2023-03-10T23:59:48.327Z,1.27
